Time;durP1;ratioP1;P1;durP2;ratioP2;P2;SDS_P1;SDS_P2;PMS_P1;PMS_P2;Temp;Humidity;BMP_temperature;BMP_pressure;BME280_temperature;BME280_humidity;BME280_pressure;Samples;Min_cycle;Max_cycle;Signal;HPM_P1;HPM_P2
2022/01/25 00:08:40;;;;;;;37.10;17.47;;;4.50;99.90;;;;;;5093714;28;20491;-85
2022/01/25 00:32:20;;;;;;;37.57;21.27;;;4.50;99.90;;;;;;5093293;28;20479;-86
2022/01/25 00:34:45;;;;;;;36.30;18.13;;;4.50;99.90;;;;;;5075059;28;20771;-86
2022/01/25 00:37:11;;;;;;;37.67;21.17;;;4.40;99.90;;;;;;5074825;28;20174;-86
2022/01/25 00:39:38;;;;;;;40.67;21.10;;;4.40;99.90;;;;;;5093049;28;20237;-86
2022/01/25 00:42:05;;;;;;;30.40;16.53;;;4.50;99.90;;;;;;5093183;28;20195;-86
2022/01/25 00:44:35;;;;;;;34.70;17.73;;;4.50;99.90;;;;;;5093164;28;20410;-86
2022/01/25 00:47:02;;;;;;;39.53;20.80;;;4.50;99.90;;;;;;5075044;28;20806;-87
2022/01/25 00:49:29;;;;;;;40.50;19.37;;;4.40;99.90;;;;;;5074763;28;20934;-87
2022/01/25 00:56:49;;;;;;;37.47;17.27;;;4.50;99.90;;;;;;5093002;28;20674;-87
2022/01/25 00:59:18;;;;;;;34.60;18.43;;;4.40;99.90;;;;;;5092881;28;20520;-86
2022/01/25 01:01:45;;;;;;;36.63;19.10;;;4.40;99.90;;;;;;5074866;28;20418;-87
2022/01/25 01:04:11;;;;;;;44.13;20.70;;;4.40;99.90;;;;;;5094300;28;20434;-89
2022/01/25 01:06:38;;;;;;;46.57;19.33;;;4.40;99.90;;;;;;5076302;28;20422;-91
2022/01/25 01:09:07;;;;;;;35.30;15.37;;;4.40;99.90;;;;;;5094233;28;20414;-90
2022/01/25 01:11:35;;;;;;;42.20;21.10;;;4.40;99.90;;;;;;5094108;28;20407;-91
2022/01/25 01:14:16;;;;;;;39.83;19.67;;;4.40;99.90;;;;;;5093722;28;20457;-90
2022/01/25 01:35:32;;;;;;;44.30;22.40;;;4.40;99.90;;;;;;5097580;28;20913;-89
2022/01/25 01:43:30;;;;;;;45.03;22.53;;;4.40;99.90;;;;;;5097603;28;20760;-90
2022/01/25 01:46:17;;;;;;;48.87;22.17;;;4.40;99.90;;;;;;5079421;28;20430;-89
2022/01/25 01:48:54;;;;;;;53.50;23.30;;;4.40;99.90;;;;;;5079851;28;20421;-90
2022/01/25 01:51:31;;;;;;;43.37;20.60;;;4.40;99.90;;;;;;5097919;28;20520;-91
2022/01/25 01:53:59;;;;;;;44.73;22.03;;;4.40;99.90;;;;;;5079886;28;20421;-91
2022/01/25 01:56:26;;;;;;;39.87;22.50;;;4.40;99.90;;;;;;5098298;28;20449;-89
2022/01/25 01:58:54;;;;;;;49.80;23.83;;;4.40;99.90;;;;;;5096545;28;20805;-90
2022/01/25 02:01:20;;;;;;;44.93;23.17;;;4.40;99.90;;;;;;5096633;28;20753;-90
2022/01/25 02:03:46;;;;;;;48.77;22.33;;;4.40;99.90;;;;;;5078498;28;20425;-90
2022/01/25 02:06:12;;;;;;;57.50;26.57;;;4.40;99.90;;;;;;5078960;28;20930;-90
2022/01/25 02:08:38;;;;;;;46.87;24.80;;;4.40;99.90;;;;;;5078482;28;20632;-89
2022/01/25 02:11:05;;;;;;;53.43;24.37;;;4.40;99.90;;;;;;5078701;28;20418;-90
2022/01/25 02:13:31;;;;;;;50.90;24.37;;;4.40;99.90;;;;;;5078651;28;20175;-89
2022/01/25 02:15:58;;;;;;;60.83;27.53;;;4.40;99.90;;;;;;5099390;28;20421;-89
2022/01/25 02:23:35;;;;;;;56.40;25.87;;;4.40;99.90;;;;;;5097448;28;20466;-90
2022/01/25 02:26:03;;;;;;;52.63;24.83;;;4.40;99.90;;;;;;5096590;28;20808;-89
2022/01/25 02:28:33;;;;;;;59.97;28.77;;;4.40;99.90;;;;;;5078180;28;20185;-89
2022/01/25 02:30:59;;;;;;;59.20;29.83;;;4.40;99.90;;;;;;5096195;28;20421;-89
2022/01/25 02:33:25;;;;;;;59.20;28.37;;;4.40;99.90;;;;;;5077966;28;20498;-89
2022/01/25 02:35:51;;;;;;;74.17;31.90;;;4.40;99.90;;;;;;5078228;28;20418;-89
2022/01/25 02:38:26;;;;;;;62.67;26.27;;;4.40;99.90;;;;;;5077512;28;20960;-89
2022/01/25 02:40:51;;;;;;;62.77;27.60;;;4.40;99.90;;;;;;5078074;28;20635;-89
2022/01/25 02:43:20;;;;;;;58.27;28.27;;;4.40;99.90;;;;;;5077279;28;20418;-89
2022/01/25 02:49:04;;;;;;;62.23;31.03;;;4.40;99.90;;;;;;5061664;28;20412;-89
2022/01/25 02:51:37;;;;;;;61.43;26.80;;;4.40;99.90;;;;;;5076748;28;20474;-89
2022/01/25 02:54:04;;;;;;;67.40;28.07;;;4.40;99.90;;;;;;5095583;28;20742;-89
2022/01/25 02:56:30;;;;;;;69.57;31.73;;;4.40;99.90;;;;;;5095488;28;20410;-89
2022/01/25 02:58:56;;;;;;;66.60;29.43;;;4.40;99.90;;;;;;5077241;28;20457;-90
2022/01/25 03:01:22;;;;;;;62.50;29.13;;;4.40;99.90;;;;;;5095309;28;20741;-88
2022/01/25 03:03:49;;;;;;;67.07;28.40;;;4.40;99.90;;;;;;5095411;28;20198;-89
2022/01/25 03:06:17;;;;;;;67.87;33.67;;;4.40;99.90;;;;;;5095161;28;20443;-89
2022/01/25 03:08:42;;;;;;;65.73;30.43;;;4.40;99.90;;;;;;5094913;28;20914;-88
2022/01/25 03:11:08;;;;;;;71.07;30.63;;;4.40;99.90;;;;;;5095253;28;20413;-88
2022/01/25 03:13:47;;;;;;;60.27;29.90;;;4.40;99.90;;;;;;5095179;28;20570;-89
2022/01/25 03:16:20;;;;;;;62.00;30.20;;;4.40;99.90;;;;;;5094958;28;20161;-87
2022/01/25 03:18:48;;;;;;;61.43;26.53;;;4.40;99.90;;;;;;5094960;28;20454;-89
2022/01/25 03:21:32;;;;;;;63.53;28.70;;;4.40;99.90;;;;;;5094926;28;20432;-88
2022/01/25 03:23:58;;;;;;;61.47;29.17;;;4.40;99.90;;;;;;5076765;28;20427;-88
2022/01/25 03:26:25;;;;;;;58.53;26.37;;;4.40;99.90;;;;;;5095018;28;20464;-87
2022/01/25 03:28:52;;;;;;;65.00;30.67;;;4.40;99.90;;;;;;5095385;28;20471;-89
2022/01/25 03:31:18;;;;;;;65.30;31.10;;;4.40;99.90;;;;;;5077299;28;20419;-90
2022/01/25 03:33:43;;;;;;;64.40;29.40;;;4.40;99.90;;;;;;5076966;28;20774;-90
2022/01/25 03:36:09;;;;;;;64.37;28.90;;;4.30;99.90;;;;;;5095012;28;20176;-91
2022/01/25 03:38:37;;;;;;;63.83;30.27;;;4.30;99.90;;;;;;5076897;28;20180;-90
2022/01/25 03:41:08;;;;;;;64.90;29.47;;;4.30;99.90;;;;;;5095694;28;20447;-91
2022/01/25 03:43:35;;;;;;;61.23;28.77;;;4.30;99.90;;;;;;5077673;28;20407;-90
2022/01/25 03:46:07;;;;;;;72.90;29.97;;;4.30;99.90;;;;;;5095059;28;20434;-90
2022/01/25 03:50:58;;;;;;;73.90;32.67;;;4.30;99.90;;;;;;5094874;28;20462;-89
2022/01/25 03:53:24;;;;;;;63.93;28.80;;;4.30;99.90;;;;;;5094800;28;20664;-89
2022/01/25 03:55:51;;;;;;;61.30;28.47;;;4.30;99.90;;;;;;5093983;28;20169;-89
2022/01/25 03:58:16;;;;;;;72.23;29.97;;;4.40;99.90;;;;;;5076324;28;20176;-90
2022/01/25 04:00:43;;;;;;;67.83;32.90;;;4.30;99.90;;;;;;5094787;28;20403;-89
2022/01/25 04:03:16;;;;;;;63.73;29.07;;;4.40;99.90;;;;;;5094586;28;20304;-89
2022/01/25 04:08:10;;;;;;;67.23;29.37;;;4.40;99.90;;;;;;5094035;28;20781;-89
2022/01/25 04:10:36;;;;;;;65.73;28.77;;;4.40;99.90;;;;;;5094172;28;20408;-88
2022/01/25 04:13:02;;;;;;;67.40;31.47;;;4.30;99.90;;;;;;5076007;28;20443;-89
2022/01/25 04:15:27;;;;;;;77.00;32.37;;;4.30;99.90;;;;;;5094334;28;20402;-89
2022/01/25 04:18:15;;;;;;;65.73;29.90;;;4.40;99.90;;;;;;5076026;28;20402;-89
2022/01/25 04:20:42;;;;;;;67.10;29.53;;;4.30;99.90;;;;;;5076296;28;20222;-90
2022/01/25 04:25:52;;;;;;;56.67;24.93;;;4.30;99.90;;;;;;5094594;28;20479;-89
2022/01/25 04:28:18;;;;;;;70.17;31.37;;;4.30;99.90;;;;;;5076205;28;20446;-88
2022/01/25 04:30:43;;;;;;;67.27;30.63;;;5.40;99.90;;;;;;5093997;28;20165;-88
2022/01/25 04:33:22;;;;;;;72.60;31.87;;;4.30;99.90;;;;;;5093968;28;20254;-89
2022/01/25 04:49:52;;;;;;;63.47;29.00;;;4.30;99.90;;;;;;4992948;28;20412;-88
2022/01/25 04:52:20;;;;;;;62.97;29.93;;;4.30;99.90;;;;;;4980318;28;20471;-89
2022/01/25 04:57:53;;;;;;;66.70;30.97;;;4.30;99.90;;;;;;5094382;28;20500;-89
2022/01/25 05:00:21;;;;;;;69.30;32.10;;;4.30;99.90;;;;;;5076126;28;21146;-90
2022/01/25 05:03:07;;;;;;;64.70;30.33;;;4.30;99.90;;;;;;5094005;28;20460;-90
2022/01/25 05:05:38;;;;;;;65.23;31.53;;;4.30;99.90;;;;;;5094114;28;20485;-90
2022/01/25 05:08:17;;;;;;;71.27;31.10;;;4.30;99.90;;;;;;5096906;28;20436;-90
2022/01/25 05:11:07;;;;;;;75.67;33.00;;;4.30;99.90;;;;;;5098149;28;20471;-89
2022/01/25 05:13:45;;;;;;;68.90;32.03;;;4.30;99.90;;;;;;5080410;28;20410;-90
2022/01/25 05:16:30;;;;;;;66.90;28.80;;;4.30;99.90;;;;;;5080482;28;20450;-89
2022/01/25 05:19:22;;;;;;;61.47;29.80;;;4.30;99.90;;;;;;5083481;28;20460;-89
2022/01/25 05:24:37;;;;;;;72.20;32.97;;;4.30;99.90;;;;;;5097797;28;20406;-90
2022/01/25 05:27:04;;;;;;;79.20;33.03;;;4.30;99.90;;;;;;5097889;28;20435;-91
2022/01/25 05:29:29;;;;;;;65.00;31.77;;;4.30;99.90;;;;;;5079847;28;20423;-90
2022/01/25 05:31:56;;;;;;;67.60;32.70;;;4.30;99.90;;;;;;5079595;28;20410;-90
2022/01/25 05:34:21;;;;;;;71.13;33.90;;;4.30;99.90;;;;;;5079551;28;20176;-89
2022/01/25 05:36:47;;;;;;;69.90;32.70;;;4.30;99.90;;;;;;5097447;28;20422;-90
2022/01/25 05:39:18;;;;;;;62.20;31.70;;;4.30;99.90;;;;;;5079575;28;20243;-90
2022/01/25 05:41:53;;;;;;;73.07;33.37;;;4.20;99.90;;;;;;5079430;28;20216;-91
2022/01/25 05:47:08;;;;;;;66.03;32.30;;;4.20;99.90;;;;;;5097575;28;20902;-90
2022/01/25 05:49:35;;;;;;;66.53;29.77;;;4.20;99.90;;;;;;5096687;28;20430;-88
2022/01/25 05:52:05;;;;;;;65.60;31.03;;;4.30;99.90;;;;;;5096257;28;20465;-89
2022/01/25 05:54:31;;;;;;;72.20;34.47;;;4.30;99.90;;;;;;5096842;28;20440;-89
2022/01/25 05:56:57;;;;;;;56.80;30.13;;;4.30;99.90;;;;;;5078764;28;20448;-89
2022/01/25 05:59:22;;;;;;;75.73;35.30;;;4.20;99.90;;;;;;5078703;28;20212;-89
2022/01/25 06:01:48;;;;;;;70.80;33.37;;;4.30;99.90;;;;;;5078485;28;20683;-89
2022/01/25 06:04:14;;;;;;;65.40;30.77;;;4.30;99.90;;;;;;5096876;28;20538;-91
2022/01/25 06:06:40;;;;;;;63.73;30.80;;;4.30;99.90;;;;;;5096904;28;20413;-90
2022/01/25 06:09:08;;;;;;;64.27;31.17;;;4.30;99.90;;;;;;5079136;28;20172;-91
2022/01/25 06:11:34;;;;;;;66.43;34.13;;;4.30;99.90;;;;;;5097205;28;20225;-90
2022/01/25 06:14:01;;;;;;;72.17;31.40;;;4.30;99.90;;;;;;5078833;28;20571;-90
2022/01/25 06:16:29;;;;;;;74.80;33.33;;;4.30;99.90;;;;;;5096617;28;20190;-88
2022/01/25 06:18:56;;;;;;;71.47;31.50;;;4.20;99.90;;;;;;5095172;28;20582;-89
2022/01/25 06:21:22;;;;;;;73.70;32.60;;;4.20;99.90;;;;;;5077940;28;20431;-88
2022/01/25 06:23:48;;;;;;;85.80;34.40;;;4.20;99.90;;;;;;5096419;28;20897;-87
2022/01/25 06:26:13;;;;;;;71.90;33.10;;;4.50;99.90;;;;;;5095053;28;20527;-87
2022/01/25 06:28:39;;;;;;;70.07;32.80;;;4.20;99.90;;;;;;5093720;28;20668;-89
2022/01/25 06:31:04;;;;;;;64.07;28.83;;;4.30;99.90;;;;;;5095104;28;20176;-89
2022/01/25 06:33:30;;;;;;;63.83;29.40;;;4.30;99.90;;;;;;5077983;28;20167;-89
2022/01/25 06:35:56;;;;;;;61.77;29.90;;;4.30;99.90;;;;;;5077825;28;20301;-89
2022/01/25 06:38:22;;;;;;;73.23;32.63;;;4.30;99.90;;;;;;5077709;28;20169;-88
2022/01/25 06:40:48;;;;;;;64.27;31.70;;;4.30;99.90;;;;;;5077821;28;20491;-89
2022/01/25 06:43:13;;;;;;;66.30;29.67;;;4.30;99.90;;;;;;5095918;28;20172;-89
2022/01/25 06:45:41;;;;;;;63.70;30.67;;;4.30;99.90;;;;;;5096342;28;20168;-89
2022/01/25 06:48:07;;;;;;;70.77;31.60;;;4.30;99.90;;;;;;5096361;28;20165;-90
2022/01/25 06:50:33;;;;;;;74.93;31.87;;;4.30;99.90;;;;;;5096316;28;20466;-91
2022/01/25 06:52:59;;;;;;;62.10;29.43;;;4.30;99.90;;;;;;5095563;28;20746;-90
2022/01/25 06:55:25;;;;;;;64.80;30.30;;;4.30;99.90;;;;;;5101918;28;20429;-90
2022/01/25 06:57:50;;;;;;;68.07;32.33;;;4.30;99.90;;;;;;5089220;28;20415;-88
2022/01/25 07:00:22;;;;;;;59.23;27.13;;;4.30;99.90;;;;;;5105083;28;20204;-89
2022/01/25 07:02:48;;;;;;;56.17;26.87;;;4.30;99.90;;;;;;5077533;28;20176;-89
2022/01/25 07:05:13;;;;;;;76.13;32.70;;;4.30;99.90;;;;;;5095808;28;20431;-88
2022/01/25 07:07:40;;;;;;;64.27;30.20;;;4.30;99.90;;;;;;5077128;28;20918;-88
2022/01/25 07:10:07;;;;;;;79.57;34.27;;;4.30;99.90;;;;;;5077321;28;20187;-87
2022/01/25 07:12:33;;;;;;;62.53;30.50;;;4.30;99.90;;;;;;5077530;28;20460;-90
2022/01/25 07:15:02;;;;;;;74.17;31.23;;;4.30;99.90;;;;;;5077594;28;20419;-90
2022/01/25 07:17:27;;;;;;;65.97;32.57;;;4.30;99.90;;;;;;5096551;28;20225;-93
2022/01/25 07:19:53;;;;;;;62.17;30.73;;;4.40;99.90;;;;;;5078990;28;20477;-92
2022/01/25 07:22:18;;;;;;;61.23;30.10;;;4.30;99.90;;;;;;5095950;28;20173;-90
2022/01/25 07:24:44;;;;;;;62.63;30.33;;;4.40;99.90;;;;;;5096438;28;20219;-90
2022/01/25 07:27:09;;;;;;;61.10;30.90;;;4.40;99.90;;;;;;5078265;28;20178;-89
2022/01/25 07:29:35;;;;;;;58.60;29.00;;;4.40;99.90;;;;;;5075979;28;20176;-91
2022/01/25 07:32:01;;;;;;;62.93;27.40;;;4.40;99.90;;;;;;5087083;28;20646;-91
2022/01/25 07:34:27;;;;;;;67.37;30.70;;;4.40;99.90;;;;;;5070873;28;20184;-91
2022/01/25 07:36:53;;;;;;;63.63;28.93;;;4.40;99.90;;;;;;5062715;28;20414;-91
2022/01/25 07:39:19;;;;;;;63.93;30.23;;;4.40;99.90;;;;;;5092014;28;20239;-90
2022/01/25 07:41:46;;;;;;;69.40;29.97;;;4.40;99.90;;;;;;5062387;28;20431;-89
2022/01/25 07:44:11;;;;;;;62.23;30.10;;;4.40;99.90;;;;;;5087916;28;20963;-90
2022/01/25 07:46:37;;;;;;;77.30;31.73;;;4.40;99.90;;;;;;5086588;28;20415;-90
2022/01/25 07:49:03;;;;;;;64.23;30.07;;;4.40;99.90;;;;;;5062143;28;20173;-89
2022/01/25 07:51:30;;;;;;;76.10;33.50;;;4.40;99.90;;;;;;5076636;28;20219;-89
2022/01/25 07:53:57;;;;;;;67.43;30.07;;;4.40;99.90;;;;;;5073216;28;20418;-89
2022/01/25 07:56:22;;;;;;;71.20;29.70;;;4.40;99.90;;;;;;5088755;28;20905;-89
2022/01/25 07:58:48;;;;;;;63.50;27.93;;;4.40;99.90;;;;;;5076390;28;20465;-89
2022/01/25 08:01:15;;;;;;;56.57;26.93;;;4.40;99.90;;;;;;5076447;28;20931;-89
2022/01/25 08:03:42;;;;;;;76.23;32.93;;;4.40;99.90;;;;;;5094541;28;20513;-90
2022/01/25 08:06:07;;;;;;;64.43;31.63;;;4.40;99.90;;;;;;5076112;28;20490;-91
2022/01/25 08:08:33;;;;;;;67.07;28.30;;;4.40;99.90;;;;;;5076390;28;20504;-89
2022/01/25 08:10:59;;;;;;;70.40;31.53;;;4.40;99.90;;;;;;5093238;28;20187;-90
2022/01/25 08:13:25;;;;;;;61.50;27.97;;;4.40;99.90;;;;;;5076212;28;20178;-89
2022/01/25 08:15:50;;;;;;;73.13;29.90;;;4.40;99.90;;;;;;5076125;28;20422;-89
2022/01/25 08:18:16;;;;;;;66.17;32.00;;;4.50;99.90;;;;;;5076236;28;20624;-90
2022/01/25 08:20:41;;;;;;;74.03;30.13;;;4.40;99.90;;;;;;5075936;28;20216;-90
2022/01/25 08:23:07;;;;;;;64.97;29.73;;;4.40;99.90;;;;;;5092932;28;20195;-89
2022/01/25 08:25:32;;;;;;;67.33;30.80;;;4.50;99.90;;;;;;5076272;28;20225;-92
2022/01/25 08:27:58;;;;;;;69.37;29.93;;;4.50;99.90;;;;;;5076782;28;20173;-90
2022/01/25 08:30:23;;;;;;;63.27;28.70;;;4.50;99.90;;;;;;5095190;28;20164;-90
2022/01/25 08:32:50;;;;;;;60.93;29.33;;;4.60;99.90;;;;;;5093292;28;20177;-91
2022/01/25 08:35:16;;;;;;;69.47;30.07;;;4.50;99.90;;;;;;5095551;28;20160;-90
2022/01/25 08:37:41;;;;;;;63.30;29.60;;;4.50;99.90;;;;;;5092410;28;20421;-89
2022/01/25 08:40:08;;;;;;;60.53;29.27;;;4.50;99.90;;;;;;5075711;28;20207;-90
2022/01/25 08:42:35;;;;;;;58.60;28.13;;;4.60;99.90;;;;;;5093181;28;20168;-89
2022/01/25 08:45:01;;;;;;;64.27;29.17;;;4.60;99.90;;;;;;5075836;28;20418;-88
2022/01/25 08:47:26;;;;;;;59.80;28.27;;;4.60;99.90;;;;;;5093892;28;20430;-90
2022/01/25 08:49:52;;;;;;;64.50;31.00;;;4.60;99.90;;;;;;5092563;28;20472;-92
2022/01/25 08:52:18;;;;;;;66.70;32.43;;;4.60;99.90;;;;;;5075352;28;20700;-89
2022/01/25 08:54:43;;;;;;;64.57;29.57;;;4.60;99.90;;;;;;5093268;28;20539;-88
2022/01/25 08:57:09;;;;;;;59.67;31.57;;;4.60;99.90;;;;;;5093844;28;20175;-87
2022/01/25 08:59:35;;;;;;;69.17;29.33;;;4.60;99.90;;;;;;5092396;28;20572;-90
2022/01/25 09:02:01;;;;;;;68.60;32.90;;;4.60;99.90;;;;;;5092522;28;20513;-89
2022/01/25 09:04:27;;;;;;;66.03;31.70;;;4.60;99.90;;;;;;5094898;28;20506;-90
2022/01/25 09:06:52;;;;;;;63.90;29.20;;;4.60;99.90;;;;;;5076024;28;20473;-91
2022/01/25 09:09:18;;;;;;;65.93;30.93;;;4.60;99.90;;;;;;5075833;28;20633;-87
2022/01/25 09:11:44;;;;;;;75.37;31.73;;;4.60;99.90;;;;;;5093159;28;20187;-87
2022/01/25 09:14:10;;;;;;;64.57;30.37;;;4.60;99.90;;;;;;5091574;28;20168;-87
2022/01/25 09:16:37;;;;;;;59.00;28.30;;;4.60;99.90;;;;;;5092916;28;20188;-87
2022/01/25 09:19:04;;;;;;;60.37;30.80;;;4.60;99.90;;;;;;5092755;28;20454;-87
2022/01/25 09:21:29;;;;;;;58.17;29.30;;;4.60;99.90;;;;;;5092624;28;20425;-87
2022/01/25 09:23:55;;;;;;;59.07;28.50;;;4.60;99.90;;;;;;5074543;28;20444;-87
2022/01/25 09:26:22;;;;;;;76.27;31.20;;;4.70;99.90;;;;;;5074630;28;20184;-87
2022/01/25 09:28:49;;;;;;;65.47;28.63;;;4.70;99.90;;;;;;5092828;28;20283;-88
2022/01/25 09:31:16;;;;;;;64.70;28.40;;;4.70;99.90;;;;;;5092452;28;20589;-88
2022/01/25 09:33:41;;;;;;;62.73;28.50;;;4.70;99.90;;;;;;5074626;28;20914;-87
2022/01/25 09:36:07;;;;;;;59.60;28.60;;;4.70;99.90;;;;;;5074316;28;20432;-87
2022/01/25 09:38:32;;;;;;;60.20;27.37;;;4.70;99.90;;;;;;5091810;28;20630;-88
2022/01/25 09:40:58;;;;;;;68.20;30.23;;;4.70;99.90;;;;;;5074933;28;20525;-89
2022/01/25 09:43:24;;;;;;;60.50;29.10;;;4.80;99.90;;;;;;5074658;28;20651;-87
2022/01/25 09:45:50;;;;;;;63.87;29.50;;;4.80;99.90;;;;;;5092668;28;20207;-87
2022/01/25 09:48:17;;;;;;;63.40;30.10;;;4.80;99.90;;;;;;5093536;28;20406;-89
2022/01/25 09:50:43;;;;;;;115.53;40.10;;;4.80;99.90;;;;;;5092441;28;20226;-94
2022/01/25 09:53:08;;;;;;;85.10;30.60;;;4.80;99.90;;;;;;5094238;28;20996;-95
2022/01/25 09:55:40;;;;;;;63.57;31.60;;;4.90;99.90;;;;;;5078881;28;20502;-88
2022/01/25 09:58:07;;;;;;;65.40;29.43;;;4.90;99.90;;;;;;5096788;28;20635;-87
2022/01/25 10:00:34;;;;;;;69.33;31.10;;;4.90;99.90;;;;;;5096209;28;20553;-85
2022/01/25 10:05:51;;;;;;;79.40;37.60;;;5.00;99.90;;;;;;5094896;28;20411;-87
2022/01/25 10:08:24;;;;;;;67.67;30.73;;;4.90;99.90;;;;;;5078412;28;20754;-87
2022/01/25 10:11:02;;;;;;;66.17;30.50;;;5.00;99.90;;;;;;5096521;28;20434;-88
2022/01/25 10:13:34;;;;;;;58.93;29.17;;;5.00;99.90;;;;;;5096681;28;20414;-87
2022/01/25 10:16:00;;;;;;;61.63;27.10;;;5.10;99.90;;;;;;5093534;28;20413;-86
2022/01/25 10:18:50;;;;;;;55.37;27.87;;;5.10;99.90;;;;;;5094859;28;20774;-86
2022/01/25 10:21:27;;;;;;;61.17;28.63;;;5.20;99.90;;;;;;5093724;28;20212;-88
2022/01/25 10:24:06;;;;;;;53.10;28.40;;;5.20;99.90;;;;;;5094992;28;20420;-86
2022/01/25 10:26:59;;;;;;;64.47;30.20;;;5.20;99.90;;;;;;5094804;28;20936;-88
2022/01/25 10:29:34;;;;;;;61.60;27.50;;;5.30;99.90;;;;;;5094830;28;20414;-86
2022/01/25 10:32:03;;;;;;;54.10;25.93;;;5.30;99.90;;;;;;5094626;28;20955;-85
2022/01/25 10:34:38;;;;;;;52.90;25.13;;;5.30;99.90;;;;;;5094675;28;20470;-86
2022/01/25 10:37:09;;;;;;;52.40;23.23;;;5.30;99.90;;;;;;5094220;28;20914;-87
2022/01/25 10:39:38;;;;;;;47.83;23.73;;;5.30;99.90;;;;;;5084884;28;20483;-86
2022/01/25 10:42:19;;;;;;;53.20;26.70;;;5.30;99.90;;;;;;5074563;28;20742;-88
2022/01/25 10:44:46;;;;;;;51.27;22.70;;;5.40;99.90;;;;;;5074493;28;20903;-87
2022/01/25 10:47:12;;;;;;;51.83;24.20;;;5.40;99.90;;;;;;5077523;28;20932;-88
2022/01/25 10:49:49;;;;;;;53.13;23.47;;;5.40;99.90;;;;;;5083676;28;20512;-88
2022/01/25 10:52:24;;;;;;;49.53;22.17;;;5.40;99.90;;;;;;5074707;28;20188;-86
2022/01/25 10:54:50;;;;;;;51.83;25.30;;;5.40;99.90;;;;;;5074449;28;20415;-85
2022/01/25 10:57:23;;;;;;;50.27;23.87;;;5.40;99.90;;;;;;5074522;28;20839;-87
2022/01/25 11:00:03;;;;;;;57.00;24.93;;;5.40;99.90;;;;;;5074556;28;20254;-87
2022/01/25 11:02:28;;;;;;;54.40;27.03;;;5.40;99.90;;;;;;5074850;28;20432;-87
2022/01/25 11:05:06;;;;;;;49.00;23.50;;;5.50;99.90;;;;;;5074146;28;20458;-87
2022/01/25 11:07:44;;;;;;;47.87;21.87;;;5.50;99.90;;;;;;5074479;28;20185;-87
2022/01/25 11:10:16;;;;;;;46.13;23.30;;;5.50;99.90;;;;;;5057179;28;20451;-89
2022/01/25 11:12:48;;;;;;;56.53;23.40;;;5.60;99.90;;;;;;5058711;28;20455;-94
2022/01/25 11:15:14;;;;;;;45.33;24.00;;;5.60;99.90;;;;;;5075232;28;20983;-90
2022/01/25 11:17:40;;;;;;;44.20;21.07;;;5.70;99.90;;;;;;5058546;28;20452;-88
2022/01/25 11:20:07;;;;;;;41.13;22.30;;;5.70;99.90;;;;;;5074628;28;20201;-87
2022/01/25 11:22:33;;;;;;;48.60;22.80;;;5.70;99.90;;;;;;5077059;28;20511;-88
2022/01/25 11:25:02;;;;;;;46.43;23.73;;;5.80;99.90;;;;;;5079866;28;20451;-88
2022/01/25 11:27:29;;;;;;;44.00;19.87;;;5.90;99.90;;;;;;5082438;28;20939;-87
2022/01/25 11:29:59;;;;;;;45.50;21.00;;;5.80;99.90;;;;;;5087058;28;20408;-88
2022/01/25 11:32:32;;;;;;;53.57;23.30;;;5.80;99.90;;;;;;5097459;28;20925;-95
2022/01/25 11:34:59;;;;;;;47.63;22.60;;;5.80;99.90;;;;;;5095519;28;20457;-89
2022/01/25 11:37:40;;;;;;;50.67;22.97;;;5.80;99.90;;;;;;5094627;28;20402;-88
2022/01/25 11:40:29;;;;;;;44.00;19.93;;;5.80;99.90;;;;;;5095012;28;20459;-92
2022/01/25 11:42:58;;;;;;;50.53;23.23;;;5.70;99.90;;;;;;5094425;28;20803;-87
2022/01/25 11:45:27;;;;;;;44.03;20.80;;;5.70;99.90;;;;;;5094176;28;20410;-88
2022/01/25 11:47:54;;;;;;;40.83;19.20;;;5.80;99.90;;;;;;5093992;28;20414;-88
2022/01/25 11:50:26;;;;;;;44.43;21.77;;;5.70;99.90;;;;;;5093992;28;20462;-90
2022/01/25 11:52:55;;;;;;;38.20;21.20;;;5.80;99.90;;;;;;5076036;28;20927;-89
2022/01/25 11:55:42;;;;;;;35.07;18.17;;;5.80;99.90;;;;;;5094148;28;20411;-89
2022/01/25 11:58:14;;;;;;;43.97;19.27;;;5.90;99.90;;;;;;5075773;28;20414;-88
2022/01/25 12:00:47;;;;;;;42.30;21.30;;;5.90;99.90;;;;;;5094292;28;20552;-88
2022/01/25 12:03:34;;;;;;;43.20;19.60;;;5.90;99.90;;;;;;5075921;28;20775;-88
2022/01/25 12:06:19;;;;;;;42.20;19.07;;;5.90;99.90;;;;;;5092881;28;20427;-88
2022/01/25 12:11:49;;;;;;;42.73;22.27;;;5.90;99.90;;;;;;5094033;28;20408;-89
2022/01/25 12:14:19;;;;;;;40.83;18.27;;;5.80;99.90;;;;;;5094012;28;20418;-87
2022/01/25 12:16:46;;;;;;;39.60;19.30;;;5.80;99.90;;;;;;5092969;28;20406;-88
2022/01/25 12:19:16;;;;;;;39.70;22.73;;;5.80;99.90;;;;;;5093802;28;20459;-88
2022/01/25 12:21:48;;;;;;;47.87;23.03;;;5.80;99.90;;;;;;5093602;28;20419;-89
2022/01/25 12:24:20;;;;;;;47.83;22.63;;;5.80;99.90;;;;;;5094005;28;20493;-88
2022/01/25 12:27:03;;;;;;;42.53;19.73;;;5.90;99.90;;;;;;5093611;28;20934;-89
2022/01/25 12:30:11;;;;;;;47.57;19.27;;;5.80;99.90;;;;;;5093217;28;20422;-91
2022/01/25 12:33:03;;;;;;;45.77;20.90;;;5.80;99.90;;;;;;5092816;28;20404;-87
2022/01/25 12:35:41;;;;;;;42.57;20.40;;;5.70;99.90;;;;;;5074779;28;20778;-87
2022/01/25 12:38:13;;;;;;;39.30;19.03;;;5.80;99.90;;;;;;5093372;28;20920;-88
2022/01/25 12:40:46;;;;;;;43.70;19.97;;;5.70;99.90;;;;;;5092871;28;20873;-88
2022/01/25 12:43:18;;;;;;;46.63;22.10;;;5.80;99.90;;;;;;5092804;28;20506;-88
2022/01/25 12:45:48;;;;;;;47.33;20.83;;;5.80;99.90;;;;;;5092975;28;20424;-88
2022/01/25 12:48:18;;;;;;;40.83;20.60;;;5.80;99.90;;;;;;5092945;28;20814;-89
2022/01/25 12:50:46;;;;;;;34.13;16.90;;;5.80;99.90;;;;;;5093139;28;20496;-90
2022/01/25 12:53:16;;;;;;;36.70;17.50;;;5.80;99.90;;;;;;5075508;28;20435;-90
2022/01/25 12:55:44;;;;;;;38.03;18.33;;;5.80;99.90;;;;;;5075720;28;20814;-88
2022/01/25 12:58:11;;;;;;;41.50;19.33;;;5.90;99.90;;;;;;5093604;28;20412;-90
2022/01/25 13:00:40;;;;;;;33.60;17.43;;;5.90;99.90;;;;;;5076794;28;20476;-89
2022/01/25 13:03:29;;;;;;;39.30;17.63;;;6.00;99.90;;;;;;5093644;28;20414;-88
2022/01/25 13:06:34;;;;;;;46.23;18.70;;;6.00;99.90;;;;;;5074801;28;20418;-86
2022/01/25 13:09:13;;;;;;;35.00;17.03;;;6.10;99.90;;;;;;5093001;28;20754;-86
2022/01/25 13:12:28;;;;;;;46.13;20.63;;;6.10;99.90;;;;;;5092697;28;20427;-86
2022/01/25 13:14:50;;;;;;;38.93;20.37;;;6.00;99.90;;;;;;5091637;28;20834;-87
2022/01/25 13:17:23;;;;;;;44.17;20.47;;;6.00;99.90;;;;;;5092825;28;20502;-87
2022/01/25 13:19:58;;;;;;;37.40;17.73;;;6.00;99.90;;;;;;5074068;28;20479;-86
2022/01/25 13:22:43;;;;;;;34.37;17.93;;;6.00;99.90;;;;;;5074708;28;20442;-86
2022/01/25 13:25:27;;;;;;;32.20;18.30;;;6.00;99.90;;;;;;5093021;28;20422;-86
2022/01/25 13:27:57;;;;;;;34.97;17.00;;;6.00;99.90;;;;;;5094067;28;20405;-88
2022/01/25 13:30:48;;;;;;;33.40;16.20;;;6.10;99.90;;;;;;5096904;28;20786;-87
2022/01/25 13:33:19;;;;;;;35.40;16.60;;;6.00;99.90;;;;;;5096895;28;20407;-87
2022/01/25 13:35:49;;;;;;;28.70;13.53;;;6.10;99.90;;;;;;5096334;28;20450;-85
2022/01/25 13:38:20;;;;;;;33.40;15.70;;;6.00;99.90;;;;;;5096640;28;20885;-87
2022/01/25 13:45:53;;;;;;;31.47;15.50;;;6.10;99.90;;;;;;5095682;28;20472;-86
2022/01/25 13:48:21;;;;;;;33.50;15.50;;;6.00;99.90;;;;;;5095568;28;20477;-86
2022/01/25 13:50:53;;;;;;;26.13;12.77;;;6.00;99.90;;;;;;5095906;28;20484;-85
2022/01/25 13:53:19;;;;;;;29.07;14.37;;;6.10;99.90;;;;;;5094433;28;20420;-86
2022/01/25 13:55:49;;;;;;;25.23;14.47;;;6.00;99.90;;;;;;5095973;28;20412;-87
2022/01/25 13:58:29;;;;;;;28.03;14.70;;;6.00;99.90;;;;;;5096325;28;20419;-87
2022/01/25 14:00:56;;;;;;;28.00;13.33;;;6.00;99.90;;;;;;5095640;28;20944;-88
2022/01/25 14:03:35;;;;;;;28.60;15.03;;;6.00;99.90;;;;;;5077578;28;20770;-87
2022/01/25 14:06:00;;;;;;;27.60;13.37;;;6.00;99.90;;;;;;5095420;28;20499;-89
2022/01/25 14:08:38;;;;;;;23.47;13.60;;;6.00;99.90;;;;;;5095704;28;20457;-88
2022/01/25 14:11:31;;;;;;;23.97;11.53;;;6.00;99.90;;;;;;5077712;28;20170;-88
2022/01/25 14:24:39;;;;;;;21.17;11.83;;;6.00;99.90;;;;;;5096177;28;20438;-88
2022/01/25 14:27:19;;;;;;;26.87;12.43;;;6.00;99.90;;;;;;5077571;28;20458;-88
2022/01/25 14:29:44;;;;;;;27.50;11.80;;;6.00;99.90;;;;;;5077929;28;20178;-91
2022/01/25 14:32:10;;;;;;;23.70;13.00;;;6.00;99.90;;;;;;5080442;28;20875;-91
2022/01/25 14:34:35;;;;;;;25.20;13.23;;;6.00;99.90;;;;;;5096849;28;20498;-91
2022/01/25 14:37:01;;;;;;;21.80;11.60;;;6.00;99.90;;;;;;5078732;28;20260;-89
2022/01/25 14:39:27;;;;;;;20.73;10.77;;;6.00;99.90;;;;;;5079491;28;20611;-93
2022/01/25 14:41:53;;;;;;;21.10;11.87;;;6.00;99.90;;;;;;5079276;28;20176;-92
2022/01/25 14:44:23;;;;;;;21.40;11.10;;;5.90;99.90;;;;;;5096335;28;20927;-91
2022/01/25 14:46:52;;;;;;;19.17;10.63;;;5.90;99.90;;;;;;5096761;28;20181;-90